sensor_id;sensor_type;location;lat;lon;timestamp;pressure;altitude;pressure_sealevel;temperature;humidity
61205;BME280;47068;55.780;37.520;2023-11-18T00:00:20;100773.81;;;-3.51;57.50
61205;BME280;47068;55.780;37.520;2023-11-18T00:02:45;100805.38;;;-3.34;57.35
61205;BME280;47068;55.780;37.520;2023-11-18T00:05:12;100809.44;;;-3.25;57.37
61205;BME280;47068;55.780;37.520;2023-11-18T00:07:37;100806.91;;;-3.28;57.54
61205;BME280;47068;55.780;37.520;2023-11-18T00:10:04;100813.78;;;-3.26;57.67
61205;BME280;47068;55.780;37.520;2023-11-18T00:12:30;100798.53;;;-3.38;57.36
61205;BME280;47068;55.780;37.520;2023-11-18T00:14:55;100806.59;;;-3.45;57.99
61205;BME280;47068;55.780;37.520;2023-11-18T00:17:21;100807.53;;;-3.46;58.27
61205;BME280;47068;55.780;37.520;2023-11-18T00:19:47;100817.78;;;-3.42;58.56
61205;BME280;47068;55.780;37.520;2023-11-18T00:22:13;100814.34;;;-3.44;57.99
61205;BME280;47068;55.780;37.520;2023-11-18T00:24:39;100823.25;;;-3.51;58.60
61205;BME280;47068;55.780;37.520;2023-11-18T00:27:04;100830.94;;;-3.46;58.60
61205;BME280;47068;55.780;37.520;2023-11-18T00:29:33;100825.72;;;-3.46;58.98
61205;BME280;47068;55.780;37.520;2023-11-18T00:31:59;100822.31;;;-3.48;58.49
61205;BME280;47068;55.780;37.520;2023-11-18T00:34:24;100813.03;;;-3.57;59.60
61205;BME280;47068;55.780;37.520;2023-11-18T00:36:50;100721.00;;;-4.07;59.10
61205;BME280;47068;55.780;37.520;2023-11-18T00:39:15;100825.72;;;-3.46;59.17
61205;BME280;47068;55.780;37.520;2023-11-18T00:41:41;100832.53;;;-3.42;58.76
61205;BME280;47068;55.780;37.520;2023-11-18T00:44:06;100830.97;;;-3.48;59.70
61205;BME280;47068;55.780;37.520;2023-11-18T00:46:33;100830.31;;;-3.54;59.34
61205;BME280;47068;55.780;37.520;2023-11-18T00:49:01;100836.31;;;-3.52;59.70
61205;BME280;47068;55.780;37.520;2023-11-18T00:51:27;100836.31;;;-3.52;59.83
61205;BME280;47068;55.780;37.520;2023-11-18T00:53:53;100820.88;;;-3.59;59.66
61205;BME280;47068;55.780;37.520;2023-11-18T00:56:21;100837.00;;;-3.46;59.57
61205;BME280;47068;55.780;37.520;2023-11-18T00:58:47;100835.47;;;-3.53;60.40
61205;BME280;47068;55.780;37.520;2023-11-18T01:01:12;100842.44;;;-3.53;60.01
61205;BME280;47068;55.780;37.520;2023-11-18T01:03:38;100839.91;;;-3.57;60.33
61205;BME280;47068;55.780;37.520;2023-11-18T01:06:04;100821.28;;;-3.71;60.51
61205;BME280;47068;55.780;37.520;2023-11-18T01:08:31;100838.31;;;-3.61;60.01
61205;BME280;47068;55.780;37.520;2023-11-18T01:10:57;100832.59;;;-3.73;60.92
61205;BME280;47068;55.780;37.520;2023-11-18T01:13:22;100847.19;;;-3.68;60.64
61205;BME280;47068;55.780;37.520;2023-11-18T01:15:48;100847.00;;;-3.62;60.82
61205;BME280;47068;55.780;37.520;2023-11-18T01:18:14;100849.41;;;-3.55;60.85
61205;BME280;47068;55.780;37.520;2023-11-18T01:20:40;100840.13;;;-3.64;60.71
61205;BME280;47068;55.780;37.520;2023-11-18T01:23:06;100852.03;;;-3.55;60.70
61205;BME280;47068;55.780;37.520;2023-11-18T01:25:31;100854.66;;;-3.57;60.69
61205;BME280;47068;55.780;37.520;2023-11-18T01:27:57;100846.25;;;-3.65;61.35
61205;BME280;47068;55.780;37.520;2023-11-18T01:30:22;100860.09;;;-3.65;60.94
61205;BME280;47068;55.780;37.520;2023-11-18T01:32:49;100851.66;;;-3.73;61.80
61205;BME280;47068;55.780;37.520;2023-11-18T01:35:14;100865.41;;;-3.68;61.61
61205;BME280;47068;55.780;37.520;2023-11-18T01:37:40;100863.00;;;-3.74;61.73
61205;BME280;47068;55.780;37.520;2023-11-18T01:40:06;100846.94;;;-3.88;61.99
61205;BME280;47068;55.780;37.520;2023-11-18T01:42:33;100864.09;;;-3.82;62.50
61205;BME280;47068;55.780;37.520;2023-11-18T01:44:59;100865.03;;;-3.85;62.53
61205;BME280;47068;55.780;37.520;2023-11-18T01:47:29;100867.75;;;-3.88;62.57
61205;BME280;47068;55.780;37.520;2023-11-18T01:49:59;100778.28;;;-4.40;62.68
61205;BME280;47068;55.780;37.520;2023-11-18T01:52:27;100873.84;;;-3.89;62.52
61205;BME280;47068;55.780;37.520;2023-11-18T01:54:53;100860.88;;;-3.90;63.22
61205;BME280;47068;55.780;37.520;2023-11-18T01:57:20;100864.41;;;-3.93;63.18
61205;BME280;47068;55.780;37.520;2023-11-18T01:59:46;100861.97;;;-3.99;63.28
61205;BME280;47068;55.780;37.520;2023-11-18T02:02:12;100850.06;;;-4.06;63.48
61205;BME280;47068;55.780;37.520;2023-11-18T02:04:39;100834.81;;;-4.18;63.14
61205;BME280;47068;55.780;37.520;2023-11-18T02:07:04;100856.22;;;-4.09;63.51
61205;BME280;47068;55.780;37.520;2023-11-18T02:09:34;100858.75;;;-4.07;63.41
61205;BME280;47068;55.780;37.520;2023-11-18T02:12:23;100868.19;;;-4.03;63.19
61205;BME280;47068;55.780;37.520;2023-11-18T02:14:53;100859.72;;;-4.10;63.66
61205;BME280;47068;55.780;37.520;2023-11-18T02:17:21;100867.47;;;-4.08;64.20
61205;BME280;47068;55.780;37.520;2023-11-18T02:19:52;100878.66;;;-4.06;63.82
61205;BME280;47068;55.780;37.520;2023-11-18T02:22:18;100846.06;;;-4.18;64.20
61205;BME280;47068;55.780;37.520;2023-11-18T02:24:43;100857.78;;;-4.03;64.51
61205;BME280;47068;55.780;37.520;2023-11-18T02:27:09;100826.38;;;-4.26;64.02
61205;BME280;47068;55.780;37.520;2023-11-18T02:29:41;100868.19;;;-4.03;64.08
61205;BME280;47068;55.780;37.520;2023-11-18T02:35:09;100854.50;;;-4.10;64.60
61205;BME280;47068;55.780;37.520;2023-11-18T02:37:40;100865.47;;;-4.00;64.28
61205;BME280;47068;55.780;37.520;2023-11-18T02:40:11;100866.44;;;-4.03;63.96
61205;BME280;47068;55.780;37.520;2023-11-18T02:42:41;100829.75;;;-4.23;64.34
61205;BME280;47068;55.780;37.520;2023-11-18T02:45:09;100857.13;;;-4.11;64.13
61205;BME280;47068;55.780;37.520;2023-11-18T02:47:38;100865.53;;;-4.02;64.11
61205;BME280;47068;55.780;37.520;2023-11-18T02:50:04;100865.75;;;-4.09;64.37
61205;BME280;47068;55.780;37.520;2023-11-18T02:52:39;100863.19;;;-4.11;64.60
61205;BME280;47068;55.780;37.520;2023-11-18T02:55:06;100868.41;;;-4.11;64.15
61205;BME280;47068;55.780;37.520;2023-11-18T02:57:36;100861.44;;;-4.10;64.63
61205;BME280;47068;55.780;37.520;2023-11-18T03:00:06;100843.69;;;-4.25;65.05
61205;BME280;47068;55.780;37.520;2023-11-18T03:02:36;100868.28;;;-4.08;64.78
61205;BME280;47068;55.780;37.520;2023-11-18T03:05:06;100862.34;;;-4.11;64.38
61205;BME280;47068;55.780;37.520;2023-11-18T03:07:32;100850.59;;;-4.24;64.45
61205;BME280;47068;55.780;37.520;2023-11-18T03:09:58;100875.41;;;-4.14;64.62
61205;BME280;47068;55.780;37.520;2023-11-18T03:12:25;100857.50;;;-4.23;64.77
61205;BME280;47068;55.780;37.520;2023-11-18T03:14:54;100874.72;;;-4.21;65.03
61205;BME280;47068;55.780;37.520;2023-11-18T03:17:19;100882.53;;;-4.21;64.75
61205;BME280;47068;55.780;37.520;2023-11-18T03:19:48;100858.66;;;-4.35;65.29
61205;BME280;47068;55.780;37.520;2023-11-18T03:22:15;100862.22;;;-4.38;64.96
61205;BME280;47068;55.780;37.520;2023-11-18T03:24:41;100883.34;;;-4.19;65.32
61205;BME280;47068;55.780;37.520;2023-11-18T03:27:07;100876.31;;;-4.15;65.45
61205;BME280;47068;55.780;37.520;2023-11-18T03:29:34;100878.78;;;-4.11;65.42
61205;BME280;47068;55.780;37.520;2023-11-18T03:32:00;100887.53;;;-4.15;64.96
61205;BME280;47068;55.780;37.520;2023-11-18T03:34:25;100887.66;;;-4.18;65.15
61205;BME280;47068;55.780;37.520;2023-11-18T03:36:50;100882.44;;;-4.18;64.82
61205;BME280;47068;55.780;37.520;2023-11-18T03:39:17;100872.91;;;-4.17;65.28
61205;BME280;47068;55.780;37.520;2023-11-18T03:41:43;100877.06;;;-4.12;64.58
61205;BME280;47068;55.780;37.520;2023-11-18T03:44:12;100865.28;;;-4.23;64.73
61205;BME280;47068;55.780;37.520;2023-11-18T03:46:38;100873.16;;;-4.26;65.26
61205;BME280;47068;55.780;37.520;2023-11-18T03:49:03;100879.25;;;-4.27;65.74
61205;BME280;47068;55.780;37.520;2023-11-18T03:51:29;100880.38;;;-4.36;65.42
61205;BME280;47068;55.780;37.520;2023-11-18T03:53:55;100880.50;;;-4.42;65.75
61205;BME280;47068;55.780;37.520;2023-11-18T03:56:20;100878.13;;;-4.50;66.15
61205;BME280;47068;55.780;37.520;2023-11-18T03:58:46;100884.94;;;-4.46;66.26
61205;BME280;47068;55.780;37.520;2023-11-18T04:01:22;100884.22;;;-4.51;66.48
61205;BME280;47068;55.780;37.520;2023-11-18T04:03:47;100858.44;;;-4.58;66.58
61205;BME280;47068;55.780;37.520;2023-11-18T04:06:13;100888.25;;;-4.41;66.23
61205;BME280;47068;55.780;37.520;2023-11-18T04:08:44;100878.94;;;-4.48;66.23
61205;BME280;47068;55.780;37.520;2023-11-18T04:11:09;100887.66;;;-4.50;66.64
61205;BME280;47068;55.780;37.520;2023-11-18T04:13:34;100893.50;;;-4.42;67.04
61205;BME280;47068;55.780;37.520;2023-11-18T04:16:00;100890.69;;;-4.34;66.59
61205;BME280;47068;55.780;37.520;2023-11-18T04:18:25;100853.16;;;-4.55;66.08
61205;BME280;47068;55.780;37.520;2023-11-18T04:20:51;100894.44;;;-4.45;66.66
61205;BME280;47068;55.780;37.520;2023-11-18T04:23:18;100784.34;;;-5.04;66.54
61205;BME280;47068;55.780;37.520;2023-11-18T04:25:43;100901.34;;;-4.44;67.47
61205;BME280;47068;55.780;37.520;2023-11-18T04:28:08;100895.38;;;-4.47;67.71
61205;BME280;47068;55.780;37.520;2023-11-18T04:30:34;100888.59;;;-4.53;67.27
61205;BME280;47068;55.780;37.520;2023-11-18T04:33:00;100841.66;;;-4.78;67.26
61205;BME280;47068;55.780;37.520;2023-11-18T04:35:25;100899.59;;;-4.43;67.30
61205;BME280;47068;55.780;37.520;2023-11-18T04:37:51;100894.34;;;-4.42;67.28
61205;BME280;47068;55.780;37.520;2023-11-18T04:40:16;100880.72;;;-4.50;67.27
61205;BME280;47068;55.780;37.520;2023-11-18T04:42:42;100885.09;;;-4.52;67.04
61205;BME280;47068;55.780;37.520;2023-11-18T04:45:08;100873.25;;;-4.62;67.47
61205;BME280;47068;55.780;37.520;2023-11-18T04:47:35;100892.94;;;-4.53;67.63
61205;BME280;47068;55.780;37.520;2023-11-18T04:50:01;100892.00;;;-4.51;67.65
61205;BME280;47068;55.780;37.520;2023-11-18T04:52:28;100878.53;;;-4.65;67.71
61205;BME280;47068;55.780;37.520;2023-11-18T04:54:54;100887.50;;;-4.44;67.64
61205;BME280;47068;55.780;37.520;2023-11-18T04:57:19;100845.69;;;-4.67;67.14
61205;BME280;47068;55.780;37.520;2023-11-18T04:59:45;100890.09;;;-4.44;67.80
61205;BME280;47068;55.780;37.520;2023-11-18T05:02:10;100887.69;;;-4.52;67.96
61205;BME280;47068;55.780;37.520;2023-11-18T05:04:36;100879.19;;;-4.57;67.93
61205;BME280;47068;55.780;37.520;2023-11-18T05:07:01;100892.00;;;-4.51;68.00
61205;BME280;47068;55.780;37.520;2023-11-18T05:09:27;100865.56;;;-4.66;67.97
61205;BME280;47068;55.780;37.520;2023-11-18T05:11:53;100885.13;;;-4.53;67.76
61205;BME280;47068;55.780;37.520;2023-11-18T05:14:20;100883.47;;;-4.56;67.73
61205;BME280;47068;55.780;37.520;2023-11-18T05:16:46;100882.66;;;-4.58;68.15
61205;BME280;47068;55.780;37.520;2023-11-18T05:19:11;100894.41;;;-4.43;67.61
61205;BME280;47068;55.780;37.520;2023-11-18T05:21:37;100898.81;;;-4.47;67.83
61205;BME280;47068;55.780;37.520;2023-11-18T05:24:03;100895.34;;;-4.46;68.11
61205;BME280;47068;55.780;37.520;2023-11-18T05:26:28;100908.25;;;-4.43;67.66
61205;BME280;47068;55.780;37.520;2023-11-18T05:28:54;100881.69;;;-4.54;68.20
61205;BME280;47068;55.780;37.520;2023-11-18T05:31:19;100904.56;;;-4.36;67.52
61205;BME280;47068;55.780;37.520;2023-11-18T05:33:45;100899.31;;;-4.32;67.82
61205;BME280;47068;55.780;37.520;2023-11-18T05:36:17;100906.97;;;-4.28;68.21
61205;BME280;47068;55.780;37.520;2023-11-18T05:38:44;100904.22;;;-4.22;67.30
61205;BME280;47068;55.780;37.520;2023-11-18T05:41:10;100865.22;;;-4.53;68.25
61205;BME280;47068;55.780;37.520;2023-11-18T05:43:41;100867.66;;;-4.47;67.93
61205;BME280;47068;55.780;37.520;2023-11-18T05:46:16;100898.44;;;-4.33;68.12
61205;BME280;47068;55.780;37.520;2023-11-18T05:48:54;100901.84;;;-4.29;67.75
61205;BME280;47068;55.780;37.520;2023-11-18T05:51:22;100883.16;;;-4.44;67.75
61205;BME280;47068;55.780;37.520;2023-11-18T05:53:48;100918.22;;;-4.27;68.53
61205;BME280;47068;55.780;37.520;2023-11-18T05:56:14;100910.22;;;-4.20;68.06
61205;BME280;47068;55.780;37.520;2023-11-18T05:58:42;100916.38;;;-4.22;67.64
61205;BME280;47068;55.780;37.520;2023-11-18T06:01:10;100901.00;;;-4.31;68.11
61205;BME280;47068;55.780;37.520;2023-11-18T06:03:36;100917.91;;;-4.15;67.93
61205;BME280;47068;55.780;37.520;2023-11-18T06:06:07;100916.03;;;-4.10;67.51
61205;BME280;47068;55.780;37.520;2023-11-18T06:08:37;100921.25;;;-4.12;67.47
61205;BME280;47068;55.780;37.520;2023-11-18T06:11:09;100919.59;;;-4.14;67.96
61205;BME280;47068;55.780;37.520;2023-11-18T06:13:42;100921.13;;;-4.07;67.26
61205;BME280;47068;55.780;37.520;2023-11-18T06:16:15;100938.22;;;-3.99;67.16
61205;BME280;47068;55.780;37.520;2023-11-18T06:18:43;100927.75;;;-3.95;67.64
61205;BME280;47068;55.780;37.520;2023-11-18T06:21:17;100901.97;;;-4.03;67.07
61205;BME280;47068;55.780;37.520;2023-11-18T06:23:44;100930.00;;;-3.83;67.10
61205;BME280;47068;55.780;37.520;2023-11-18T06:26:11;100919.53;;;-3.80;67.26
61205;BME280;47068;55.780;37.520;2023-11-18T06:28:48;100921.19;;;-3.79;67.17
61205;BME280;47068;55.780;37.520;2023-11-18T06:31:16;100922.19;;;-3.83;67.38
61205;BME280;47068;55.780;37.520;2023-11-18T06:33:44;100928.91;;;-3.75;67.69
61205;BME280;47068;55.780;37.520;2023-11-18T06:36:16;100934.66;;;-3.65;67.40
61205;BME280;47068;55.780;37.520;2023-11-18T06:38:43;100926.66;;;-3.58;67.18
61205;BME280;47068;55.780;37.520;2023-11-18T06:41:09;100926.38;;;-3.48;67.54
61205;BME280;47068;55.780;37.520;2023-11-18T06:43:42;100929.81;;;-3.46;67.10
61205;BME280;47068;55.780;37.520;2023-11-18T06:46:21;100914.22;;;-3.48;66.51
61205;BME280;47068;55.780;37.520;2023-11-18T06:48:51;100932.00;;;-3.33;66.70
61205;BME280;47068;55.780;37.520;2023-11-18T06:51:24;100930.28;;;-3.34;66.58
61205;BME280;47068;55.780;37.520;2023-11-18T06:53:51;100930.31;;;-3.35;66.81
61205;BME280;47068;55.780;37.520;2023-11-18T06:56:16;100943.25;;;-3.32;65.84
61205;BME280;47068;55.780;37.520;2023-11-18T06:58:42;100938.19;;;-3.38;65.95
61205;BME280;47068;55.780;37.520;2023-11-18T07:01:08;100945.56;;;-3.23;65.05
61205;BME280;47068;55.780;37.520;2023-11-18T07:03:35;100941.91;;;-3.18;65.75
61205;BME280;47068;55.780;37.520;2023-11-18T07:06:04;100918.63;;;-3.22;65.65
61205;BME280;47068;55.780;37.520;2023-11-18T07:08:31;100931.06;;;-3.04;65.30
61205;BME280;47068;55.780;37.520;2023-11-18T07:10:57;100934.19;;;-2.93;64.80
61205;BME280;47068;55.780;37.520;2023-11-18T07:13:23;100932.41;;;-2.91;64.50
61205;BME280;47068;55.780;37.520;2023-11-18T07:15:49;100930.25;;;-2.78;64.42
61205;BME280;47068;55.780;37.520;2023-11-18T07:18:15;100929.53;;;-2.83;63.74
61205;BME280;47068;55.780;37.520;2023-11-18T07:20:41;100930.59;;;-2.89;63.20
61205;BME280;47068;55.780;37.520;2023-11-18T07:23:07;100929.53;;;-2.83;63.99
61205;BME280;47068;55.780;37.520;2023-11-18T07:25:33;100929.03;;;-2.68;64.02
61205;BME280;47068;55.780;37.520;2023-11-18T07:27:59;100933.09;;;-2.59;63.46
61205;BME280;47068;55.780;37.520;2023-11-18T07:30:25;100929.56;;;-2.57;62.92
61205;BME280;47068;55.780;37.520;2023-11-18T07:32:51;100934.59;;;-2.52;61.84
61205;BME280;47068;55.780;37.520;2023-11-18T07:35:16;100915.28;;;-2.71;61.18
61205;BME280;47068;55.780;37.520;2023-11-18T07:37:43;100932.19;;;-2.58;62.20
61205;BME280;47068;55.780;37.520;2023-11-18T07:40:09;100944.81;;;-2.46;61.93
61205;BME280;47068;55.780;37.520;2023-11-18T07:42:37;100941.91;;;-2.37;61.37
61205;BME280;47068;55.780;37.520;2023-11-18T07:45:06;100933.41;;;-2.42;60.31
61205;BME280;47068;55.780;37.520;2023-11-18T07:47:43;100936.25;;;-2.50;60.64
61205;BME280;47068;55.780;37.520;2023-11-18T07:50:09;100937.53;;;-2.36;60.66
61205;BME280;47068;55.780;37.520;2023-11-18T07:52:38;100948.28;;;-2.21;60.48
61205;BME280;47068;55.780;37.520;2023-11-18T07:55:03;100950.56;;;-2.12;60.18
61205;BME280;47068;55.780;37.520;2023-11-18T07:57:29;100924.81;;;-2.21;60.08
61205;BME280;47068;55.780;37.520;2023-11-18T07:59:54;100949.59;;;-2.08;59.76
61205;BME280;47068;55.780;37.520;2023-11-18T08:02:20;100960.69;;;-2.03;59.59
61205;BME280;47068;55.780;37.520;2023-11-18T08:04:45;100942.22;;;-1.96;59.37
61205;BME280;47068;55.780;37.520;2023-11-18T08:07:11;100952.69;;;-1.73;59.21
61205;BME280;47068;55.780;37.520;2023-11-18T08:09:36;100944.50;;;-1.64;59.20
61205;BME280;47068;55.780;37.520;2023-11-18T08:12:05;100946.09;;;-1.83;58.15
61205;BME280;47068;55.780;37.520;2023-11-18T08:14:34;100948.75;;;-1.85;58.72
61205;BME280;47068;55.780;37.520;2023-11-18T08:17:00;100945.81;;;-1.76;58.91
61205;BME280;47068;55.780;37.520;2023-11-18T08:19:25;100938.81;;;-1.99;57.59
61205;BME280;47068;55.780;37.520;2023-11-18T08:21:51;100928.22;;;-2.19;57.87
61205;BME280;47068;55.780;37.520;2023-11-18T08:24:17;100938.31;;;-2.34;58.56
61205;BME280;47068;55.780;37.520;2023-11-18T08:26:43;100924.97;;;-2.50;58.27
61205;BME280;47068;55.780;37.520;2023-11-18T08:29:08;100945.19;;;-2.32;58.85
61205;BME280;47068;55.780;37.520;2023-11-18T08:31:34;100944.13;;;-2.26;58.48
61205;BME280;47068;55.780;37.520;2023-11-18T08:34:00;100933.28;;;-2.39;58.30
61205;BME280;47068;55.780;37.520;2023-11-18T08:36:25;100928.22;;;-2.44;59.06
61205;BME280;47068;55.780;37.520;2023-11-18T08:38:52;100940.78;;;-2.30;58.86
61205;BME280;47068;55.780;37.520;2023-11-18T08:41:17;100918.41;;;-2.35;58.59
61205;BME280;47068;55.780;37.520;2023-11-18T08:43:45;100916.91;;;-2.18;58.36
61205;BME280;47068;55.780;37.520;2023-11-18T08:46:14;100928.06;;;-2.14;58.40
61205;BME280;47068;55.780;37.520;2023-11-18T08:48:40;100915.03;;;-2.14;58.28
61205;BME280;47068;55.780;37.520;2023-11-18T08:51:06;100922.16;;;-1.94;58.14
61205;BME280;47068;55.780;37.520;2023-11-18T08:53:34;100903.81;;;-1.93;57.50
61205;BME280;47068;55.780;37.520;2023-11-18T08:56:08;100845.69;;;-2.20;56.69
61205;BME280;47068;55.780;37.520;2023-11-18T08:58:45;100926.81;;;-1.56;56.34
61205;BME280;47068;55.780;37.520;2023-11-18T09:01:10;100928.28;;;-1.49;56.40
61205;BME280;47068;55.780;37.520;2023-11-18T09:03:40;100939.84;;;-1.56;55.68
61205;BME280;47068;55.780;37.520;2023-11-18T09:06:14;100925.84;;;-1.77;56.13
61205;BME280;47068;55.780;37.520;2023-11-18T09:08:44;100933.38;;;-1.92;56.07
61205;BME280;47068;55.780;37.520;2023-11-18T09:11:14;100935.97;;;-1.92;56.69
61205;BME280;47068;55.780;37.520;2023-11-18T09:13:42;100931.00;;;-1.75;56.29
61205;BME280;47068;55.780;37.520;2023-11-18T09:16:08;100922.28;;;-1.74;56.30
61205;BME280;47068;55.780;37.520;2023-11-18T09:18:35;100925.66;;;-1.72;56.16
61205;BME280;47068;55.780;37.520;2023-11-18T09:21:02;100927.59;;;-1.77;54.99
61205;BME280;47068;55.780;37.520;2023-11-18T09:23:29;100916.94;;;-1.94;54.95
61205;BME280;47068;55.780;37.520;2023-11-18T09:25:57;100871.28;;;-2.29;54.93
61205;BME280;47068;55.780;37.520;2023-11-18T09:28:24;100936.06;;;-1.94;55.02
61205;BME280;47068;55.780;37.520;2023-11-18T09:30:50;100922.53;;;-2.05;54.41
61205;BME280;47068;55.780;37.520;2023-11-18T09:33:22;100931.91;;;-2.24;54.07
61205;BME280;47068;55.780;37.520;2023-11-18T09:36:04;100908.06;;;-2.39;54.58
61205;BME280;47068;55.780;37.520;2023-11-18T09:38:36;100896.44;;;-2.28;54.64
61205;BME280;47068;55.780;37.520;2023-11-18T09:41:03;100898.28;;;-2.32;54.46
61205;BME280;47068;55.780;37.520;2023-11-18T09:43:33;100933.28;;;-2.14;54.77
61205;BME280;47068;55.780;37.520;2023-11-18T09:46:09;100923.50;;;-2.08;54.47
61205;BME280;47068;55.780;37.520;2023-11-18T09:48:48;100917.25;;;-2.04;54.05
61205;BME280;47068;55.780;37.520;2023-11-18T09:51:26;100927.44;;;-1.96;53.38
61205;BME280;47068;55.780;37.520;2023-11-18T09:53:59;100904.13;;;-2.01;53.92
61205;BME280;47068;55.780;37.520;2023-11-18T09:59:20;100917.06;;;-1.74;53.31
61205;BME280;47068;55.780;37.520;2023-11-18T10:01:53;100920.25;;;-1.66;52.54
61205;BME280;47068;55.780;37.520;2023-11-18T10:04:26;100922.09;;;-1.70;52.64
61205;BME280;47068;55.780;37.520;2023-11-18T10:06:54;100917.13;;;-1.76;52.61
61205;BME280;47068;55.780;37.520;2023-11-18T10:09:20;100919.44;;;-1.91;52.99
61205;BME280;47068;55.780;37.520;2023-11-18T10:11:54;100918.53;;;-1.90;53.54
61205;BME280;47068;55.780;37.520;2023-11-18T10:14:26;100912.13;;;-1.82;53.68
61205;BME280;47068;55.780;37.520;2023-11-18T10:16:51;100915.94;;;-1.67;53.29
61205;BME280;47068;55.780;37.520;2023-11-18T10:19:19;100912.97;;;-1.58;53.74
61205;BME280;47068;55.780;37.520;2023-11-18T10:21:45;100893.06;;;-1.61;53.08
61205;BME280;47068;55.780;37.520;2023-11-18T10:24:14;100909.34;;;-1.54;52.39
61205;BME280;47068;55.780;37.520;2023-11-18T10:26:45;100882.44;;;-1.79;52.56
61205;BME280;47068;55.780;37.520;2023-11-18T10:29:14;100908.72;;;-1.61;53.06
61205;BME280;47068;55.780;37.520;2023-11-18T10:31:40;100898.66;;;-1.48;52.94
61205;BME280;47068;55.780;37.520;2023-11-18T10:34:13;100901.84;;;-1.40;52.14
61205;BME280;47068;55.780;37.520;2023-11-18T10:36:41;100867.81;;;-1.60;52.21
61205;BME280;47068;55.780;37.520;2023-11-18T10:39:12;100860.66;;;-1.55;51.86
61205;BME280;47068;55.780;37.520;2023-11-18T10:41:42;100863.31;;;-1.56;51.52
61205;BME280;47068;55.780;37.520;2023-11-18T10:44:09;100901.59;;;-1.34;51.78
61205;BME280;47068;55.780;37.520;2023-11-18T10:46:50;100903.75;;;-1.45;50.87
61205;BME280;47068;55.780;37.520;2023-11-18T10:49:16;100912.25;;;-1.62;51.09
61205;BME280;47068;55.780;37.520;2023-11-18T10:51:43;100908.88;;;-1.65;51.53
61205;BME280;47068;55.780;37.520;2023-11-18T10:54:13;100911.50;;;-1.65;51.20
61205;BME280;47068;55.780;37.520;2023-11-18T10:56:51;100913.19;;;-1.64;51.84
61205;BME280;47068;55.780;37.520;2023-11-18T10:59:21;100890.38;;;-1.59;52.23
61205;BME280;47068;55.780;37.520;2023-11-18T11:01:48;100902.00;;;-1.44;51.65
61205;BME280;47068;55.780;37.520;2023-11-18T11:04:15;100895.25;;;-1.50;50.76
61205;BME280;47068;55.780;37.520;2023-11-18T11:06:50;100874.06;;;-1.64;51.11
61205;BME280;47068;55.780;37.520;2023-11-18T11:09:20;100865.00;;;-1.77;51.03
61205;BME280;47068;55.780;37.520;2023-11-18T11:11:54;100844.25;;;-1.80;50.88
61205;BME280;47068;55.780;37.520;2023-11-18T11:14:24;100888.22;;;-1.48;51.43
61205;BME280;47068;55.780;37.520;2023-11-18T11:17:05;100900.13;;;-1.41;51.20
61205;BME280;47068;55.780;37.520;2023-11-18T11:22:38;100897.00;;;-1.27;51.21
61205;BME280;47068;55.780;37.520;2023-11-18T11:28:10;100879.81;;;-1.33;50.85
61205;BME280;47068;55.780;37.520;2023-11-18T11:30:58;100905.06;;;-1.11;49.77
61205;BME280;47068;55.780;37.520;2023-11-18T11:33:41;100907.75;;;-1.13;50.00
61205;BME280;47068;55.780;37.520;2023-11-18T11:36:11;100883.03;;;-1.26;49.41
61205;BME280;47068;55.780;37.520;2023-11-18T11:38:38;100899.16;;;-1.16;49.10
61205;BME280;47068;55.780;37.520;2023-11-18T11:41:07;100885.59;;;-1.25;49.88
61205;BME280;47068;55.780;37.520;2023-11-18T11:43:35;100891.22;;;-1.13;48.97
61205;BME280;47068;55.780;37.520;2023-11-18T11:46:02;100901.47;;;-1.09;49.23
61205;BME280;47068;55.780;37.520;2023-11-18T11:48:37;100882.72;;;-1.18;49.36
61205;BME280;47068;55.780;37.520;2023-11-18T11:51:26;100904.28;;;-1.13;49.10
61205;BME280;47068;55.780;37.520;2023-11-18T11:54:04;100893.25;;;-1.43;48.92
61205;BME280;47068;55.780;37.520;2023-11-18T11:56:45;100883.06;;;-1.73;49.76
61205;BME280;47068;55.780;37.520;2023-11-18T12:02:14;100892.41;;;-1.44;50.45
61205;BME280;47068;55.780;37.520;2023-11-18T12:04:47;100893.53;;;-1.28;49.84
61205;BME280;47068;55.780;37.520;2023-11-18T12:07:19;100902.94;;;-1.24;50.01
61205;BME280;47068;55.780;37.520;2023-11-18T12:09:47;100888.00;;;-1.20;50.58
61205;BME280;47068;55.780;37.520;2023-11-18T12:12:22;100897.09;;;-1.08;50.85
61205;BME280;47068;55.780;37.520;2023-11-18T12:14:56;100890.72;;;-1.01;51.52
61205;BME280;47068;55.780;37.520;2023-11-18T12:17:23;100893.09;;;-0.95;53.92
61205;BME280;47068;55.780;37.520;2023-11-18T12:19:53;100891.03;;;-0.87;51.14
61205;BME280;47068;55.780;37.520;2023-11-18T12:22:25;100893.13;;;-0.97;51.31
61205;BME280;47068;55.780;37.520;2023-11-18T12:32:58;100899.47;;;-1.24;51.63
61205;BME280;47068;55.780;37.520;2023-11-18T12:36:12;100896.94;;;-1.26;52.10
61205;BME280;47068;55.780;37.520;2023-11-18T12:41:39;100904.25;;;-1.35;51.77
61205;BME280;47068;55.780;37.520;2023-11-18T12:44:16;100908.03;;;-1.42;52.23
61205;BME280;47068;55.780;37.520;2023-11-18T12:46:53;100883.59;;;-1.63;52.78
61205;BME280;47068;55.780;37.520;2023-11-18T12:49:23;100886.19;;;-1.63;54.56
61205;BME280;47068;55.780;37.520;2023-11-18T12:51:50;100899.91;;;-1.58;54.50
61205;BME280;47068;55.780;37.520;2023-11-18T12:54:17;100894.94;;;-1.64;54.47
61205;BME280;47068;55.780;37.520;2023-11-18T12:56:44;100907.88;;;-1.61;54.42
61205;BME280;47068;55.780;37.520;2023-11-18T12:59:14;100898.38;;;-1.64;54.40
61205;BME280;47068;55.780;37.520;2023-11-18T13:01:43;100899.38;;;-1.66;54.36
61205;BME280;47068;55.780;37.520;2023-11-18T13:04:16;100907.81;;;-1.60;54.02
61205;BME280;47068;55.780;37.520;2023-11-18T13:06:42;100900.19;;;-1.66;53.92
61205;BME280;47068;55.780;37.520;2023-11-18T13:09:08;100908.81;;;-1.64;53.63
61205;BME280;47068;55.780;37.520;2023-11-18T13:11:36;100919.41;;;-1.67;54.17